SXS61 EDDM-LTAI
Flight info
| Callsign | SXS61 |
|---|---|
| Flight time | 2h 31m |
| Altitude | 35000 |
| Route | VAVOR3E VAVOR M867 RADIZ DCT EVAXI DCT NIPEL DCT GORPA DCT KUSIB DCT KOMAR DCT OKSIG DCT MITNO DCT VABEK UL603 OLOTA DCT RUGAS DCT RIKSO UN127 IMR UN135 NESIL NESIL1M |
| Aircraft | A320/M-SDE3FGHIRWY/LB1 |
Departure
| Time | 2026-05-06 13:08 |
|---|---|
| Airport | Munich Airport (EDDM) |
Arrival
| Time | 2026-05-06 15:40 |
|---|---|
| Airport | Antalya International Airport (LTAI) |
| Time | Latitude | Longitude | Altitude | Speed | Heading |
|---|---|---|---|---|---|
| 2026-05-06 12:05 | 48.35089 | 11.78349 | 1486 ft | 0 kts | 83° |
| 2026-05-06 12:51 | 48.35087 | 11.78327 | 1473 ft | 4 kts | 83° |
| 2026-05-06 12:51 | 48.35085 | 11.78295 | 1479 ft | 4 kts | 82° |
| 2026-05-06 12:52 | 48.35079 | 11.78256 | 1471 ft | 4 kts | 68° |
| 2026-05-06 12:52 | 48.35066 | 11.78222 | 1471 ft | 4 kts | 37° |
| 2026-05-06 12:52 | 48.35045 | 11.78213 | 1472 ft | 4 kts | 353° |
| 2026-05-06 12:52 | 48.35029 | 11.78216 | 1475 ft | 0 kts | 353° |
| 2026-05-06 12:56 | 48.35038 | 11.78214 | 1485 ft | 2 kts | 353° |
| 2026-05-06 12:57 | 48.35058 | 11.78210 | 1476 ft | 4 kts | 353° |
| 2026-05-06 12:57 | 48.35069 | 11.78208 | 1481 ft | 2 kts | 353° |
| 2026-05-06 12:57 | 48.35093 | 11.78204 | 1485 ft | 5 kts | 353° |
| 2026-05-06 12:57 | 48.35138 | 11.78196 | 1485 ft | 8 kts | 353° |
| 2026-05-06 12:58 | 48.35196 | 11.78173 | 1475 ft | 9 kts | 315° |
| 2026-05-06 12:58 | 48.35197 | 11.78076 | 1481 ft | 10 kts | 263° |
| 2026-05-06 12:58 | 48.35190 | 11.77982 | 1485 ft | 6 kts | 263° |
| 2026-05-06 12:58 | 48.35186 | 11.77937 | 1481 ft | 3 kts | 263° |
| 2026-05-06 12:59 | 48.35183 | 11.77894 | 1479 ft | 5 kts | 263° |
| 2026-05-06 12:59 | 48.35178 | 11.77835 | 1485 ft | 7 kts | 263° |
| 2026-05-06 12:59 | 48.35147 | 11.77786 | 1481 ft | 8 kts | 188° |
| 2026-05-06 12:59 | 48.35088 | 11.77799 | 1480 ft | 10 kts | 172° |
| 2026-05-06 13:00 | 48.35013 | 11.77814 | 1485 ft | 12 kts | 172° |
| 2026-05-06 13:00 | 48.34925 | 11.77831 | 1485 ft | 14 kts | 174° |
| 2026-05-06 13:00 | 48.34830 | 11.77873 | 1479 ft | 15 kts | 165° |
| 2026-05-06 13:00 | 48.34731 | 11.77890 | 1482 ft | 12 kts | 174° |
| 2026-05-06 13:01 | 48.34665 | 11.77877 | 1475 ft | 9 kts | 225° |
| 2026-05-06 13:01 | 48.34655 | 11.77779 | 1485 ft | 10 kts | 264° |
| 2026-05-06 13:01 | 48.34646 | 11.77667 | 1478 ft | 11 kts | 263° |
| 2026-05-06 13:01 | 48.34636 | 11.77543 | 1473 ft | 13 kts | 263° |
| 2026-05-06 13:02 | 48.34626 | 11.77404 | 1485 ft | 14 kts | 263° |
| 2026-05-06 13:02 | 48.34614 | 11.77253 | 1485 ft | 15 kts | 263° |
| 2026-05-06 13:02 | 48.34601 | 11.77088 | 1485 ft | 16 kts | 263° |
| 2026-05-06 13:02 | 48.34587 | 11.76911 | 1482 ft | 18 kts | 263° |
| 2026-05-06 13:03 | 48.34573 | 11.76720 | 1485 ft | 19 kts | 263° |
| 2026-05-06 13:03 | 48.34557 | 11.76516 | 1485 ft | 20 kts | 263° |
| 2026-05-06 13:03 | 48.34540 | 11.76297 | 1485 ft | 22 kts | 263° |
| 2026-05-06 13:03 | 48.34522 | 11.76062 | 1473 ft | 23 kts | 263° |
| 2026-05-06 13:04 | 48.34503 | 11.75813 | 1480 ft | 25 kts | 263° |
| 2026-05-06 13:04 | 48.34485 | 11.75559 | 1477 ft | 24 kts | 264° |
| 2026-05-06 13:04 | 48.34475 | 11.75437 | 1485 ft | 16 kts | 263° |
| 2026-05-06 13:04 | 48.34462 | 11.75282 | 1479 ft | 14 kts | 261° |
| 2026-05-06 13:05 | 48.34409 | 11.75218 | 1479 ft | 11 kts | 173° |
| 2026-05-06 13:05 | 48.34331 | 11.75231 | 1485 ft | 12 kts | 173° |
| 2026-05-06 13:05 | 48.34264 | 11.75243 | 1474 ft | 10 kts | 173° |
| 2026-05-06 13:05 | 48.34190 | 11.75256 | 1480 ft | 11 kts | 173° |
| 2026-05-06 13:06 | 48.34108 | 11.75275 | 1476 ft | 13 kts | 163° |
| 2026-05-06 13:06 | 48.34088 | 11.75364 | 1485 ft | 8 kts | 83° |
| 2026-05-06 13:06 | 48.34088 | 11.75367 | 1485 ft | 0 kts | 83° |
| 2026-05-06 13:07 | 48.34088 | 11.75370 | 1485 ft | 4 kts | 83° |
| 2026-05-06 13:07 | 48.34121 | 11.75770 | 1475 ft | 72 kts | 83° |
| 2026-05-06 13:08 | 48.34198 | 11.76797 | 1478 ft | 124 kts | 83° |
| 2026-05-06 13:08 | 48.34314 | 11.78299 | 1488 ft | 164 kts | 84° |
| 2026-05-06 13:08 | 48.34426 | 11.79935 | 1935 ft | 165 kts | 83° |
| 2026-05-06 13:08 | 48.34551 | 11.81670 | 2557 ft | 166 kts | 83° |
| 2026-05-06 13:09 | 48.34679 | 11.83406 | 3176 ft | 167 kts | 82° |
| 2026-05-06 13:09 | 48.34817 | 11.85210 | 3472 ft | 185 kts | 83° |
| 2026-05-06 13:09 | 48.34977 | 11.87245 | 3697 ft | 209 kts | 83° |
| 2026-05-06 13:09 | 48.35158 | 11.89538 | 4035 ft | 231 kts | 83° |
| 2026-05-06 13:10 | 48.35347 | 11.91984 | 4703 ft | 240 kts | 84° |
| 2026-05-06 13:10 | 48.35390 | 11.94494 | 5440 ft | 243 kts | 104° |
| 2026-05-06 13:10 | 48.34582 | 11.96697 | 6127 ft | 245 kts | 139° |
| 2026-05-06 13:10 | 48.33253 | 11.98334 | 6634 ft | 249 kts | 144° |
| 2026-05-06 13:11 | 48.31875 | 11.99936 | 7339 ft | 250 kts | 144° |
| 2026-05-06 13:11 | 48.30472 | 12.01491 | 8181 ft | 250 kts | 152° |
| 2026-05-06 13:11 | 48.28871 | 12.02481 | 8949 ft | 251 kts | 169° |
| 2026-05-06 13:11 | 48.27075 | 12.02687 | 9360 ft | 267 kts | 185° |
| 2026-05-06 13:12 | 48.25197 | 12.02538 | 10005 ft | 272 kts | 184° |
| 2026-05-06 13:12 | 48.23295 | 12.02412 | 10711 ft | 275 kts | 184° |
| 2026-05-06 13:12 | 48.21373 | 12.02298 | 11443 ft | 277 kts | 185° |
| 2026-05-06 13:12 | 48.19442 | 12.02188 | 12172 ft | 279 kts | 185° |
| 2026-05-06 13:13 | 48.17517 | 12.02080 | 12869 ft | 282 kts | 185° |
| 2026-05-06 13:13 | 48.15549 | 12.02016 | 13574 ft | 285 kts | 180° |
| 2026-05-06 13:13 | 48.13574 | 12.02560 | 14196 ft | 293 kts | 166° |
| 2026-05-06 13:13 | 48.11679 | 12.03732 | 14856 ft | 295 kts | 161° |
| 2026-05-06 13:14 | 48.09791 | 12.04956 | 15494 ft | 297 kts | 161° |
| 2026-05-06 13:14 | 48.07908 | 12.06173 | 16098 ft | 300 kts | 161° |
| 2026-05-06 13:14 | 48.05986 | 12.07411 | 16709 ft | 302 kts | 161° |
| 2026-05-06 13:14 | 48.04022 | 12.08672 | 17316 ft | 304 kts | 161° |
| 2026-05-06 13:15 | 48.02065 | 12.09921 | 17927 ft | 307 kts | 161° |
| 2026-05-06 13:15 | 48.00094 | 12.11177 | 18472 ft | 309 kts | 162° |
| 2026-05-06 13:15 | 47.98115 | 12.12439 | 19020 ft | 310 kts | 162° |
| 2026-05-06 13:15 | 47.96124 | 12.13711 | 19561 ft | 312 kts | 162° |
| 2026-05-06 13:16 | 47.94125 | 12.15020 | 20090 ft | 317 kts | 159° |
| 2026-05-06 13:16 | 47.92250 | 12.16859 | 20430 ft | 333 kts | 147° |
| 2026-05-06 13:16 | 47.90429 | 12.19123 | 20563 ft | 348 kts | 146° |
| 2026-05-06 13:16 | 47.88544 | 12.21494 | 20689 ft | 362 kts | 146° |
| 2026-05-06 13:17 | 47.86582 | 12.23974 | 20825 ft | 376 kts | 146° |
| 2026-05-06 13:17 | 47.84550 | 12.26543 | 20958 ft | 390 kts | 146° |
| 2026-05-06 13:17 | 47.82447 | 12.29196 | 21090 ft | 402 kts | 146° |
| 2026-05-06 13:17 | 47.80281 | 12.31915 | 21279 ft | 411 kts | 146° |
| 2026-05-06 13:18 | 47.78081 | 12.34670 | 21646 ft | 416 kts | 146° |
| 2026-05-06 13:18 | 47.75862 | 12.37447 | 21989 ft | 418 kts | 146° |
| 2026-05-06 13:18 | 47.73630 | 12.40240 | 22292 ft | 421 kts | 146° |
| 2026-05-06 13:18 | 47.71381 | 12.43051 | 22659 ft | 424 kts | 146° |
| 2026-05-06 13:19 | 47.69113 | 12.45872 | 22972 ft | 427 kts | 146° |
| 2026-05-06 13:19 | 47.66824 | 12.48702 | 23334 ft | 429 kts | 146° |
| 2026-05-06 13:19 | 47.64525 | 12.51529 | 23596 ft | 431 kts | 146° |
| 2026-05-06 13:19 | 47.62209 | 12.54370 | 23884 ft | 433 kts | 147° |
| 2026-05-06 13:20 | 47.59871 | 12.57190 | 24220 ft | 434 kts | 147° |
| 2026-05-06 13:20 | 47.57507 | 12.59986 | 24559 ft | 436 kts | 148° |
| 2026-05-06 13:20 | 47.55125 | 12.62763 | 24782 ft | 437 kts | 148° |
| 2026-05-06 13:20 | 47.52712 | 12.65556 | 25029 ft | 441 kts | 148° |
| 2026-05-06 13:21 | 47.50293 | 12.68358 | 25270 ft | 444 kts | 148° |
| 2026-05-06 13:21 | 47.47866 | 12.71183 | 25572 ft | 445 kts | 148° |
| 2026-05-06 13:21 | 47.45436 | 12.74026 | 26055 ft | 444 kts | 148° |
| 2026-05-06 13:21 | 47.43021 | 12.76858 | 26536 ft | 443 kts | 148° |
| 2026-05-06 13:22 | 47.40612 | 12.79683 | 26997 ft | 441 kts | 148° |
| 2026-05-06 13:22 | 47.38205 | 12.82497 | 27434 ft | 441 kts | 149° |
| 2026-05-06 13:22 | 47.35803 | 12.85295 | 27904 ft | 439 kts | 149° |
| 2026-05-06 13:22 | 47.33407 | 12.88079 | 28413 ft | 438 kts | 149° |
| 2026-05-06 13:23 | 47.31015 | 12.90859 | 28908 ft | 438 kts | 149° |
| 2026-05-06 13:23 | 47.28624 | 12.93638 | 29369 ft | 437 kts | 149° |
| 2026-05-06 13:23 | 47.26239 | 12.96405 | 29666 ft | 438 kts | 150° |
| 2026-05-06 13:23 | 47.23834 | 12.99186 | 29933 ft | 440 kts | 150° |
| 2026-05-06 13:24 | 47.21425 | 13.01967 | 30343 ft | 439 kts | 150° |
| 2026-05-06 13:24 | 47.19025 | 13.04736 | 30701 ft | 438 kts | 150° |
| 2026-05-06 13:24 | 47.16627 | 13.07497 | 31101 ft | 436 kts | 151° |
| 2026-05-06 13:24 | 47.14250 | 13.10232 | 31470 ft | 434 kts | 150° |
| 2026-05-06 13:25 | 47.11880 | 13.12963 | 31837 ft | 432 kts | 151° |
| 2026-05-06 13:25 | 47.09514 | 13.15686 | 32225 ft | 432 kts | 150° |
| 2026-05-06 13:25 | 47.07147 | 13.18405 | 32644 ft | 431 kts | 150° |
| 2026-05-06 13:25 | 47.04793 | 13.21102 | 33104 ft | 429 kts | 151° |
| 2026-05-06 13:26 | 47.02440 | 13.23791 | 33568 ft | 428 kts | 150° |
| 2026-05-06 13:26 | 47.00098 | 13.26468 | 33938 ft | 427 kts | 150° |
| 2026-05-06 13:26 | 46.97753 | 13.29148 | 34234 ft | 427 kts | 150° |
| 2026-05-06 13:26 | 46.95413 | 13.31820 | 34552 ft | 427 kts | 150° |
| 2026-05-06 13:27 | 46.93070 | 13.34492 | 34795 ft | 427 kts | 150° |
| 2026-05-06 13:27 | 46.88329 | 13.39873 | 34897 ft | 438 kts | 150° |
| 2026-05-06 13:28 | 46.83456 | 13.45389 | 34906 ft | 446 kts | 149° |
| 2026-05-06 13:28 | 46.78567 | 13.51004 | 34905 ft | 451 kts | 146° |
| 2026-05-06 13:29 | 46.74335 | 13.57952 | 34907 ft | 462 kts | 135° |
| 2026-05-06 13:29 | 46.70285 | 13.65252 | 34905 ft | 463 kts | 136° |
| 2026-05-06 13:30 | 46.66234 | 13.72522 | 34898 ft | 462 kts | 136° |
| 2026-05-06 13:30 | 46.62172 | 13.79780 | 34903 ft | 462 kts | 136° |
| 2026-05-06 13:31 | 46.58107 | 13.87028 | 34871 ft | 462 kts | 136° |
| 2026-05-06 13:31 | 46.54033 | 13.94254 | 34894 ft | 462 kts | 136° |
| 2026-05-06 13:32 | 46.49962 | 14.01464 | 34910 ft | 461 kts | 136° |
| 2026-05-06 13:32 | 46.45946 | 14.08720 | 34914 ft | 462 kts | 134° |
| 2026-05-06 13:33 | 46.42048 | 14.16134 | 34929 ft | 463 kts | 133° |
| 2026-05-06 13:33 | 46.38165 | 14.23550 | 34926 ft | 461 kts | 133° |
| 2026-05-06 13:34 | 46.34250 | 14.30909 | 34947 ft | 461 kts | 134° |
| 2026-05-06 13:34 | 46.30317 | 14.38217 | 34957 ft | 460 kts | 134° |
| 2026-05-06 13:35 | 46.26391 | 14.45507 | 34958 ft | 460 kts | 134° |
| 2026-05-06 13:35 | 46.22467 | 14.52795 | 34939 ft | 459 kts | 134° |
| 2026-05-06 13:36 | 46.18544 | 14.60060 | 34945 ft | 459 kts | 134° |
| 2026-05-06 13:36 | 46.14617 | 14.67316 | 34951 ft | 459 kts | 134° |
| 2026-05-06 13:37 | 46.10692 | 14.74562 | 34954 ft | 459 kts | 134° |
| 2026-05-06 13:37 | 46.06791 | 14.81744 | 34945 ft | 458 kts | 134° |
| 2026-05-06 13:38 | 46.02817 | 14.89008 | 34931 ft | 459 kts | 134° |
| 2026-05-06 13:38 | 45.98893 | 14.96169 | 34931 ft | 459 kts | 134° |
| 2026-05-06 13:39 | 45.94941 | 15.03376 | 34941 ft | 459 kts | 134° |
| 2026-05-06 13:39 | 45.90993 | 15.10572 | 34951 ft | 459 kts | 134° |
| 2026-05-06 13:40 | 45.87038 | 15.17767 | 34925 ft | 459 kts | 134° |
| 2026-05-06 13:40 | 45.83067 | 15.24952 | 34938 ft | 459 kts | 134° |
| 2026-05-06 13:41 | 45.79085 | 15.32124 | 34948 ft | 460 kts | 135° |
| 2026-05-06 13:41 | 45.75099 | 15.39310 | 34954 ft | 460 kts | 134° |
| 2026-05-06 13:42 | 45.71149 | 15.46510 | 34955 ft | 460 kts | 134° |
| 2026-05-06 13:42 | 45.67194 | 15.53708 | 34943 ft | 460 kts | 134° |
| 2026-05-06 13:43 | 45.63240 | 15.60886 | 34944 ft | 460 kts | 134° |
| 2026-05-06 13:43 | 45.59276 | 15.68051 | 34947 ft | 460 kts | 134° |
| 2026-05-06 13:44 | 45.55307 | 15.75195 | 34948 ft | 459 kts | 134° |
| 2026-05-06 13:44 | 45.51362 | 15.82295 | 34923 ft | 460 kts | 134° |
| 2026-05-06 13:45 | 45.47383 | 15.89432 | 34933 ft | 460 kts | 134° |
| 2026-05-06 13:45 | 45.41395 | 16.00119 | 34936 ft | 460 kts | 134° |
| 2026-05-06 13:46 | 45.37396 | 16.07234 | 34942 ft | 460 kts | 134° |
| 2026-05-06 13:46 | 45.33398 | 16.14345 | 34915 ft | 461 kts | 134° |
| 2026-05-06 13:47 | 45.29395 | 16.21459 | 34919 ft | 461 kts | 134° |
| 2026-05-06 13:47 | 45.26057 | 16.27359 | 34925 ft | 461 kts | 134° |
| 2026-05-06 13:48 | 45.22033 | 16.34452 | 34925 ft | 461 kts | 134° |
| 2026-05-06 13:48 | 45.18007 | 16.41543 | 34909 ft | 462 kts | 134° |
| 2026-05-06 13:49 | 45.13970 | 16.48631 | 34910 ft | 463 kts | 134° |
| 2026-05-06 13:49 | 45.09925 | 16.55737 | 34911 ft | 463 kts | 134° |
| 2026-05-06 13:50 | 45.05875 | 16.62835 | 34909 ft | 463 kts | 134° |
| 2026-05-06 13:50 | 45.01820 | 16.69923 | 34898 ft | 464 kts | 134° |
| 2026-05-06 13:51 | 44.97729 | 16.77057 | 34904 ft | 464 kts | 134° |
| 2026-05-06 13:51 | 44.93637 | 16.84101 | 34915 ft | 464 kts | 135° |
| 2026-05-06 13:52 | 44.89467 | 16.90956 | 34912 ft | 463 kts | 136° |
| 2026-05-06 13:52 | 44.85239 | 16.97805 | 34894 ft | 463 kts | 135° |
| 2026-05-06 13:53 | 44.81453 | 17.05190 | 34924 ft | 467 kts | 127° |
| 2026-05-06 13:53 | 44.77940 | 17.12878 | 34937 ft | 467 kts | 127° |
| 2026-05-06 13:54 | 44.74417 | 17.20545 | 34935 ft | 466 kts | 127° |
| 2026-05-06 13:54 | 44.70891 | 17.28198 | 34929 ft | 466 kts | 127° |
| 2026-05-06 13:55 | 44.67347 | 17.35843 | 34934 ft | 467 kts | 127° |
| 2026-05-06 13:55 | 44.63801 | 17.43490 | 34941 ft | 467 kts | 127° |
| 2026-05-06 13:56 | 44.60255 | 17.51147 | 34932 ft | 467 kts | 127° |
| 2026-05-06 13:56 | 44.56705 | 17.58766 | 34930 ft | 467 kts | 127° |
| 2026-05-06 13:57 | 44.53146 | 17.66381 | 34937 ft | 467 kts | 127° |
| 2026-05-06 13:57 | 44.49587 | 17.73989 | 34936 ft | 467 kts | 127° |
| 2026-05-06 13:58 | 44.46018 | 17.81594 | 34938 ft | 467 kts | 127° |
| 2026-05-06 13:58 | 44.42448 | 17.89194 | 34938 ft | 467 kts | 127° |
| 2026-05-06 13:59 | 44.38868 | 17.96790 | 34921 ft | 468 kts | 127° |
| 2026-05-06 13:59 | 44.35272 | 18.04391 | 34921 ft | 469 kts | 127° |
| 2026-05-06 14:00 | 44.31663 | 18.11994 | 34921 ft | 470 kts | 127° |
| 2026-05-06 14:00 | 44.28047 | 18.19587 | 34942 ft | 470 kts | 126° |
| 2026-05-06 14:01 | 44.24424 | 18.27178 | 34940 ft | 470 kts | 126° |
| 2026-05-06 14:01 | 44.20794 | 18.34762 | 34946 ft | 470 kts | 127° |
| 2026-05-06 14:02 | 44.17157 | 18.42348 | 34953 ft | 471 kts | 126° |
| 2026-05-06 14:02 | 44.13526 | 18.49930 | 34958 ft | 471 kts | 127° |
| 2026-05-06 14:03 | 44.09876 | 18.57508 | 34962 ft | 471 kts | 127° |
| 2026-05-06 14:03 | 44.06221 | 18.65064 | 34971 ft | 471 kts | 127° |
| 2026-05-06 14:04 | 44.02559 | 18.72609 | 34969 ft | 471 kts | 127° |
| 2026-05-06 14:04 | 43.98899 | 18.80150 | 34957 ft | 470 kts | 126° |
| 2026-05-06 14:05 | 43.95237 | 18.87674 | 34968 ft | 470 kts | 127° |
| 2026-05-06 14:05 | 43.91571 | 18.95192 | 34967 ft | 470 kts | 127° |
| 2026-05-06 14:06 | 43.87900 | 19.02695 | 34963 ft | 470 kts | 127° |
| 2026-05-06 14:06 | 43.84219 | 19.10188 | 34956 ft | 470 kts | 127° |
| 2026-05-06 14:07 | 43.80535 | 19.17677 | 34951 ft | 471 kts | 127° |
| 2026-05-06 14:07 | 43.76835 | 19.25158 | 34950 ft | 471 kts | 127° |
| 2026-05-06 14:08 | 43.72956 | 19.32444 | 34954 ft | 470 kts | 130° |
| 2026-05-06 14:08 | 43.68948 | 19.39594 | 34948 ft | 471 kts | 130° |
| 2026-05-06 14:09 | 43.64944 | 19.46763 | 34948 ft | 472 kts | 130° |
| 2026-05-06 14:09 | 43.60966 | 19.53986 | 34956 ft | 473 kts | 129° |
| 2026-05-06 14:10 | 43.56993 | 19.61226 | 34971 ft | 473 kts | 130° |
| 2026-05-06 14:10 | 43.53002 | 19.68454 | 34963 ft | 474 kts | 130° |
| 2026-05-06 14:11 | 43.49017 | 19.75624 | 34971 ft | 474 kts | 130° |
| 2026-05-06 14:11 | 43.45006 | 19.82841 | 34973 ft | 475 kts | 130° |
| 2026-05-06 14:12 | 43.40992 | 19.90053 | 34975 ft | 475 kts | 130° |
| 2026-05-06 14:12 | 43.36972 | 19.97260 | 34988 ft | 475 kts | 130° |
| 2026-05-06 14:13 | 43.32941 | 20.04468 | 34985 ft | 476 kts | 130° |
| 2026-05-06 14:13 | 43.28903 | 20.11668 | 34989 ft | 476 kts | 130° |
| 2026-05-06 14:14 | 43.24857 | 20.18851 | 34996 ft | 476 kts | 130° |
| 2026-05-06 14:14 | 43.20807 | 20.26038 | 34994 ft | 476 kts | 130° |
| 2026-05-06 14:15 | 43.16742 | 20.33213 | 34997 ft | 477 kts | 130° |
| 2026-05-06 14:15 | 43.12675 | 20.40385 | 34993 ft | 477 kts | 130° |
| 2026-05-06 14:16 | 43.08602 | 20.47546 | 34996 ft | 477 kts | 130° |
| 2026-05-06 14:16 | 43.04524 | 20.54718 | 35000 ft | 478 kts | 130° |
| 2026-05-06 14:17 | 43.00401 | 20.61842 | 35005 ft | 477 kts | 134° |
| 2026-05-06 14:17 | 42.95679 | 20.68162 | 35017 ft | 475 kts | 139° |
| 2026-05-06 14:18 | 42.90910 | 20.74404 | 35034 ft | 475 kts | 139° |
| 2026-05-06 14:18 | 42.86136 | 20.80645 | 35035 ft | 475 kts | 139° |
| 2026-05-06 14:19 | 42.81354 | 20.86876 | 35030 ft | 476 kts | 139° |
| 2026-05-06 14:19 | 42.76551 | 20.93104 | 35034 ft | 477 kts | 139° |
| 2026-05-06 14:20 | 42.71746 | 20.99316 | 35041 ft | 477 kts | 139° |
| 2026-05-06 14:20 | 42.66928 | 21.05527 | 35038 ft | 477 kts | 139° |
| 2026-05-06 14:21 | 42.62112 | 21.11744 | 35037 ft | 478 kts | 139° |
| 2026-05-06 14:21 | 42.57293 | 21.17953 | 35031 ft | 478 kts | 139° |
| 2026-05-06 14:22 | 42.52456 | 21.24157 | 35030 ft | 479 kts | 139° |
| 2026-05-06 14:22 | 42.47606 | 21.30360 | 35034 ft | 480 kts | 139° |
| 2026-05-06 14:23 | 42.42753 | 21.36563 | 35030 ft | 480 kts | 139° |
| 2026-05-06 14:23 | 42.37896 | 21.42763 | 35020 ft | 480 kts | 139° |
| 2026-05-06 14:24 | 42.33033 | 21.48946 | 35018 ft | 480 kts | 139° |
| 2026-05-06 14:24 | 42.28161 | 21.55126 | 35016 ft | 480 kts | 139° |
| 2026-05-06 14:25 | 42.23292 | 21.61298 | 35018 ft | 480 kts | 139° |
| 2026-05-06 14:25 | 42.18479 | 21.67549 | 35005 ft | 481 kts | 137° |
| 2026-05-06 14:26 | 42.13776 | 21.73869 | 35004 ft | 481 kts | 137° |
| 2026-05-06 14:26 | 42.08999 | 21.80266 | 35000 ft | 481 kts | 137° |
| 2026-05-06 14:27 | 42.04227 | 21.86583 | 34995 ft | 481 kts | 137° |
| 2026-05-06 14:27 | 41.99435 | 21.92875 | 35000 ft | 482 kts | 137° |
| 2026-05-06 14:28 | 41.94634 | 21.99171 | 35008 ft | 482 kts | 137° |
| 2026-05-06 14:28 | 41.89842 | 22.05472 | 35014 ft | 483 kts | 137° |
| 2026-05-06 14:29 | 41.85045 | 22.11782 | 35020 ft | 483 kts | 137° |
| 2026-05-06 14:29 | 41.80239 | 22.18071 | 35014 ft | 483 kts | 137° |
| 2026-05-06 14:30 | 41.76234 | 22.23290 | 35022 ft | 483 kts | 137° |
| 2026-05-06 14:30 | 41.70625 | 22.30581 | 35026 ft | 484 kts | 137° |
| 2026-05-06 14:31 | 41.66573 | 22.35828 | 35028 ft | 484 kts | 137° |
| 2026-05-06 14:31 | 41.61738 | 22.42090 | 35029 ft | 484 kts | 137° |
| 2026-05-06 14:32 | 41.56906 | 22.48354 | 35027 ft | 484 kts | 137° |
| 2026-05-06 14:32 | 41.52064 | 22.54614 | 35028 ft | 485 kts | 137° |
| 2026-05-06 14:33 | 41.47208 | 22.60863 | 35037 ft | 485 kts | 137° |
| 2026-05-06 14:33 | 41.42343 | 22.67110 | 35038 ft | 486 kts | 137° |
| 2026-05-06 14:34 | 41.37476 | 22.73348 | 35044 ft | 486 kts | 137° |
| 2026-05-06 14:34 | 41.32636 | 22.79638 | 35035 ft | 487 kts | 132° |
| 2026-05-06 14:35 | 41.28221 | 22.86472 | 35030 ft | 487 kts | 131° |
| 2026-05-06 14:35 | 41.23800 | 22.93301 | 35034 ft | 487 kts | 131° |
| 2026-05-06 14:36 | 41.19370 | 23.00115 | 35040 ft | 488 kts | 131° |
| 2026-05-06 14:36 | 41.14929 | 23.06928 | 35045 ft | 488 kts | 131° |
| 2026-05-06 14:37 | 41.10483 | 23.13737 | 35042 ft | 488 kts | 131° |
| 2026-05-06 14:37 | 41.06043 | 23.20545 | 35039 ft | 488 kts | 131° |
| 2026-05-06 14:38 | 41.01595 | 23.27354 | 35038 ft | 489 kts | 131° |
| 2026-05-06 14:38 | 40.97134 | 23.34139 | 35040 ft | 489 kts | 131° |
| 2026-05-06 14:39 | 40.92669 | 23.40924 | 35036 ft | 489 kts | 131° |
| 2026-05-06 14:39 | 40.88195 | 23.47714 | 35035 ft | 489 kts | 131° |
| 2026-05-06 14:40 | 40.83721 | 23.54494 | 35043 ft | 490 kts | 131° |
| 2026-05-06 14:40 | 40.79264 | 23.61224 | 35044 ft | 490 kts | 131° |
| 2026-05-06 14:41 | 40.74769 | 23.67978 | 35051 ft | 490 kts | 131° |
| 2026-05-06 14:41 | 40.70275 | 23.74732 | 35044 ft | 490 kts | 131° |
| 2026-05-06 14:42 | 40.65772 | 23.81495 | 35058 ft | 491 kts | 131° |
| 2026-05-06 14:42 | 40.61261 | 23.88249 | 35062 ft | 492 kts | 131° |
| 2026-05-06 14:43 | 40.56741 | 23.95009 | 35069 ft | 492 kts | 131° |
| 2026-05-06 14:43 | 40.52216 | 24.01756 | 35069 ft | 492 kts | 131° |
| 2026-05-06 14:44 | 40.47681 | 24.08498 | 35078 ft | 493 kts | 131° |
| 2026-05-06 14:45 | 40.40859 | 24.18602 | 35072 ft | 493 kts | 131° |
| 2026-05-06 14:45 | 40.36302 | 24.25344 | 35067 ft | 494 kts | 131° |
| 2026-05-06 14:46 | 40.31739 | 24.32074 | 35070 ft | 494 kts | 131° |
| 2026-05-06 14:46 | 40.27167 | 24.38816 | 35087 ft | 494 kts | 131° |
| 2026-05-06 14:47 | 40.22616 | 24.45490 | 35078 ft | 495 kts | 131° |
| 2026-05-06 14:47 | 40.18022 | 24.52218 | 35077 ft | 496 kts | 131° |
| 2026-05-06 14:48 | 40.13427 | 24.58945 | 35075 ft | 496 kts | 131° |
| 2026-05-06 14:48 | 40.08825 | 24.65657 | 35079 ft | 496 kts | 131° |
| 2026-05-06 14:49 | 40.04242 | 24.72323 | 35080 ft | 496 kts | 131° |
| 2026-05-06 14:49 | 39.99630 | 24.79022 | 35084 ft | 497 kts | 131° |
| 2026-05-06 14:50 | 39.95014 | 24.85716 | 35085 ft | 497 kts | 131° |
| 2026-05-06 14:50 | 39.90391 | 24.92413 | 35083 ft | 497 kts | 131° |
| 2026-05-06 14:51 | 39.85795 | 24.99041 | 35082 ft | 497 kts | 131° |
| 2026-05-06 14:51 | 39.81154 | 25.05711 | 35087 ft | 497 kts | 131° |
| 2026-05-06 14:52 | 39.76514 | 25.12381 | 35069 ft | 498 kts | 131° |
| 2026-05-06 14:52 | 39.71877 | 25.19046 | 35074 ft | 498 kts | 131° |
| 2026-05-06 14:53 | 39.67217 | 25.25723 | 35079 ft | 498 kts | 131° |
| 2026-05-06 14:53 | 39.62558 | 25.32370 | 35089 ft | 498 kts | 131° |
| 2026-05-06 14:54 | 39.57883 | 25.39023 | 35092 ft | 499 kts | 131° |
| 2026-05-06 14:54 | 39.53206 | 25.45669 | 35090 ft | 499 kts | 131° |
| 2026-05-06 14:55 | 39.48522 | 25.52312 | 35085 ft | 500 kts | 132° |
| 2026-05-06 14:55 | 39.43834 | 25.58948 | 35089 ft | 500 kts | 131° |
| 2026-05-06 14:56 | 39.39139 | 25.65583 | 35104 ft | 500 kts | 131° |
| 2026-05-06 14:56 | 39.34437 | 25.72211 | 35098 ft | 500 kts | 131° |
| 2026-05-06 14:57 | 39.29755 | 25.78791 | 35101 ft | 501 kts | 131° |
| 2026-05-06 14:57 | 39.25008 | 25.85454 | 35097 ft | 501 kts | 131° |
| 2026-05-06 14:58 | 39.20318 | 25.92027 | 35097 ft | 501 kts | 131° |
| 2026-05-06 14:58 | 39.15593 | 25.98638 | 35089 ft | 502 kts | 131° |
| 2026-05-06 14:59 | 39.10853 | 26.05247 | 35084 ft | 502 kts | 131° |
| 2026-05-06 14:59 | 39.06106 | 26.11851 | 35087 ft | 503 kts | 132° |
| 2026-05-06 15:00 | 39.01352 | 26.18446 | 35084 ft | 503 kts | 132° |
| 2026-05-06 15:00 | 38.96587 | 26.25044 | 35091 ft | 503 kts | 132° |
| 2026-05-06 15:01 | 38.91815 | 26.31646 | 35085 ft | 504 kts | 131° |
| 2026-05-06 15:01 | 38.87034 | 26.38244 | 35069 ft | 505 kts | 132° |
| 2026-05-06 15:02 | 38.82130 | 26.44701 | 35076 ft | 506 kts | 139° |
| 2026-05-06 15:02 | 38.76831 | 26.50626 | 35084 ft | 506 kts | 139° |
| 2026-05-06 15:03 | 38.71533 | 26.56554 | 35097 ft | 506 kts | 139° |
| 2026-05-06 15:03 | 38.66224 | 26.62493 | 35070 ft | 507 kts | 138° |
| 2026-05-06 15:04 | 38.60945 | 26.68387 | 35057 ft | 508 kts | 139° |
| 2026-05-06 15:04 | 38.55611 | 26.74318 | 35056 ft | 509 kts | 139° |
| 2026-05-06 15:05 | 38.50265 | 26.80245 | 35060 ft | 509 kts | 139° |
| 2026-05-06 15:05 | 38.44915 | 26.86172 | 35067 ft | 509 kts | 139° |
| 2026-05-06 15:06 | 38.39561 | 26.92093 | 35066 ft | 510 kts | 139° |
| 2026-05-06 15:06 | 38.34321 | 26.98085 | 35064 ft | 510 kts | 132° |
| 2026-05-06 15:07 | 38.30222 | 27.05406 | 35061 ft | 505 kts | 114° |
| 2026-05-06 15:07 | 38.27364 | 27.13549 | 35040 ft | 503 kts | 110° |
| 2026-05-06 15:08 | 38.24561 | 27.21709 | 35045 ft | 504 kts | 110° |
| 2026-05-06 15:08 | 38.21741 | 27.29896 | 35036 ft | 506 kts | 110° |
| 2026-05-06 15:09 | 38.18907 | 27.38087 | 35038 ft | 507 kts | 110° |
| 2026-05-06 15:09 | 38.16063 | 27.46283 | 35044 ft | 507 kts | 110° |
| 2026-05-06 15:10 | 38.13218 | 27.54498 | 35060 ft | 509 kts | 110° |
| 2026-05-06 15:10 | 38.10366 | 27.62730 | 35059 ft | 510 kts | 110° |
| 2026-05-06 15:11 | 38.07490 | 27.70961 | 35062 ft | 510 kts | 111° |
| 2026-05-06 15:11 | 38.04611 | 27.79187 | 35065 ft | 510 kts | 111° |
| 2026-05-06 15:12 | 38.01649 | 27.87365 | 35066 ft | 511 kts | 113° |
| 2026-05-06 15:12 | 37.98471 | 27.95427 | 35063 ft | 511 kts | 112° |
| 2026-05-06 15:13 | 37.95525 | 28.03609 | 35045 ft | 510 kts | 110° |
| 2026-05-06 15:13 | 37.92733 | 28.11868 | 35065 ft | 510 kts | 110° |
| 2026-05-06 15:14 | 37.89923 | 28.20108 | 35086 ft | 510 kts | 110° |
| 2026-05-06 15:14 | 37.87049 | 28.28319 | 35084 ft | 510 kts | 111° |
| 2026-05-06 15:15 | 37.84156 | 28.36509 | 35085 ft | 510 kts | 111° |
| 2026-05-06 15:15 | 37.81259 | 28.44689 | 35101 ft | 509 kts | 111° |
| 2026-05-06 15:16 | 37.78860 | 28.51479 | 35096 ft | 509 kts | 111° |
| 2026-05-06 15:16 | 37.75972 | 28.59636 | 35094 ft | 508 kts | 111° |
| 2026-05-06 15:17 | 37.73082 | 28.67783 | 35105 ft | 508 kts | 111° |
| 2026-05-06 15:17 | 37.70176 | 28.75908 | 35098 ft | 508 kts | 112° |
| 2026-05-06 15:18 | 37.67232 | 28.84021 | 35103 ft | 508 kts | 112° |
| 2026-05-06 15:18 | 37.64282 | 28.92120 | 35105 ft | 508 kts | 112° |
| 2026-05-06 15:19 | 37.61326 | 29.00211 | 35117 ft | 508 kts | 112° |
| 2026-05-06 15:19 | 37.58371 | 29.08289 | 35119 ft | 507 kts | 112° |
| 2026-05-06 15:20 | 37.55433 | 29.16370 | 35121 ft | 507 kts | 111° |
| 2026-05-06 15:20 | 37.54010 | 29.20436 | 34959 ft | 506 kts | 111° |
| 2026-05-06 15:20 | 37.52623 | 29.24504 | 34716 ft | 506 kts | 110° |
| 2026-05-06 15:20 | 37.51254 | 29.28573 | 34500 ft | 504 kts | 110° |
| 2026-05-06 15:21 | 37.49885 | 29.32646 | 34267 ft | 504 kts | 110° |
| 2026-05-06 15:21 | 37.48508 | 29.36705 | 33990 ft | 505 kts | 111° |
| 2026-05-06 15:21 | 37.47115 | 29.40771 | 33717 ft | 507 kts | 111° |
| 2026-05-06 15:21 | 37.45712 | 29.44838 | 33459 ft | 507 kts | 111° |
| 2026-05-06 15:22 | 37.44299 | 29.48914 | 33180 ft | 508 kts | 111° |
| 2026-05-06 15:22 | 37.42890 | 29.52977 | 32913 ft | 508 kts | 111° |
| 2026-05-06 15:22 | 37.41479 | 29.57046 | 32668 ft | 507 kts | 111° |
| 2026-05-06 15:22 | 37.40066 | 29.61111 | 32402 ft | 506 kts | 111° |
| 2026-05-06 15:23 | 37.38656 | 29.65161 | 31922 ft | 505 kts | 111° |
| 2026-05-06 15:23 | 37.37241 | 29.69221 | 30709 ft | 512 kts | 111° |
| 2026-05-06 15:23 | 37.35807 | 29.73339 | 29563 ft | 514 kts | 111° |
| 2026-05-06 15:23 | 37.34370 | 29.77470 | 28333 ft | 516 kts | 111° |
| 2026-05-06 15:24 | 37.32933 | 29.81595 | 27095 ft | 516 kts | 111° |
| 2026-05-06 15:24 | 37.31484 | 29.85742 | 25763 ft | 519 kts | 111° |
| 2026-05-06 15:24 | 37.30026 | 29.89899 | 24435 ft | 521 kts | 111° |
| 2026-05-06 15:24 | 37.28559 | 29.94067 | 23160 ft | 521 kts | 111° |
| 2026-05-06 15:25 | 37.27109 | 29.98184 | 22353 ft | 510 kts | 111° |
| 2026-05-06 15:25 | 37.25686 | 30.02220 | 21380 ft | 502 kts | 111° |
| 2026-05-06 15:25 | 37.24282 | 30.06198 | 20445 ft | 495 kts | 112° |
| 2026-05-06 15:25 | 37.22894 | 30.10124 | 19556 ft | 489 kts | 112° |
| 2026-05-06 15:26 | 37.21524 | 30.13997 | 18702 ft | 482 kts | 112° |
| 2026-05-06 15:26 | 37.20173 | 30.17821 | 17762 ft | 476 kts | 112° |
| 2026-05-06 15:26 | 37.18844 | 30.21590 | 16841 ft | 469 kts | 112° |
| 2026-05-06 15:26 | 37.17534 | 30.25300 | 16001 ft | 462 kts | 112° |
| 2026-05-06 15:27 | 37.16235 | 30.28952 | 15194 ft | 455 kts | 112° |
| 2026-05-06 15:27 | 37.14951 | 30.32554 | 14446 ft | 449 kts | 112° |
| 2026-05-06 15:27 | 37.13702 | 30.36057 | 13726 ft | 443 kts | 112° |
| 2026-05-06 15:27 | 37.12440 | 30.39602 | 12971 ft | 437 kts | 112° |
| 2026-05-06 15:28 | 37.11211 | 30.43049 | 12487 ft | 426 kts | 112° |
| 2026-05-06 15:28 | 37.10029 | 30.46352 | 12356 ft | 406 kts | 112° |
| 2026-05-06 15:28 | 37.09041 | 30.49570 | 12236 ft | 385 kts | 103° |
| 2026-05-06 15:28 | 37.08572 | 30.52740 | 12106 ft | 367 kts | 94° |
| 2026-05-06 15:29 | 37.08274 | 30.55885 | 11970 ft | 352 kts | 94° |
| 2026-05-06 15:29 | 37.08111 | 30.58870 | 11844 ft | 334 kts | 81° |
| 2026-05-06 15:29 | 37.08736 | 30.61513 | 11713 ft | 313 kts | 57° |
| 2026-05-06 15:29 | 37.10105 | 30.63552 | 11544 ft | 296 kts | 34° |
| 2026-05-06 15:30 | 37.11895 | 30.64693 | 11213 ft | 286 kts | 12° |
| 2026-05-06 15:30 | 37.13813 | 30.65028 | 11005 ft | 279 kts | 3° |
| 2026-05-06 15:30 | 37.15768 | 30.65272 | 11003 ft | 280 kts | 4° |
| 2026-05-06 15:30 | 37.17706 | 30.65529 | 11003 ft | 280 kts | 4° |
| 2026-05-06 15:31 | 37.19592 | 30.65998 | 10999 ft | 282 kts | 17° |
| 2026-05-06 15:31 | 37.21379 | 30.67114 | 11005 ft | 286 kts | 32° |
| 2026-05-06 15:31 | 37.22973 | 30.68558 | 11005 ft | 287 kts | 33° |
| 2026-05-06 15:32 | 37.25596 | 30.72388 | 10453 ft | 296 kts | 62° |
| 2026-05-06 15:32 | 37.26429 | 30.74744 | 10099 ft | 295 kts | 63° |
| 2026-05-06 15:32 | 37.27262 | 30.77093 | 9740 ft | 293 kts | 63° |
| 2026-05-06 15:32 | 37.27984 | 30.79477 | 9378 ft | 294 kts | 78° |
| 2026-05-06 15:33 | 37.27806 | 30.82017 | 9027 ft | 297 kts | 111° |
| 2026-05-06 15:33 | 37.26585 | 30.84078 | 8626 ft | 299 kts | 143° |
| 2026-05-06 15:33 | 37.24665 | 30.85112 | 7888 ft | 310 kts | 174° |
| 2026-05-06 15:33 | 37.22520 | 30.84781 | 7055 ft | 317 kts | 205° |
| 2026-05-06 15:34 | 37.20633 | 30.83403 | 6228 ft | 313 kts | 212° |
| 2026-05-06 15:34 | 37.18603 | 30.82525 | 5489 ft | 309 kts | 183° |
| 2026-05-06 15:34 | 37.16520 | 30.82824 | 5062 ft | 294 kts | 171° |
| 2026-05-06 15:34 | 37.14541 | 30.82813 | 4686 ft | 279 kts | 189° |
| 2026-05-06 15:35 | 37.12698 | 30.82425 | 4322 ft | 266 kts | 188° |
| 2026-05-06 15:35 | 37.10880 | 30.82125 | 3970 ft | 254 kts | 186° |
| 2026-05-06 15:35 | 37.09182 | 30.81894 | 3642 ft | 244 kts | 185° |
| 2026-05-06 15:35 | 37.07511 | 30.81668 | 3326 ft | 239 kts | 185° |
| 2026-05-06 15:36 | 37.05884 | 30.81445 | 3016 ft | 232 kts | 185° |
| 2026-05-06 15:36 | 37.04309 | 30.81228 | 2714 ft | 220 kts | 185° |
| 2026-05-06 15:36 | 37.02856 | 30.81028 | 2460 ft | 200 kts | 185° |
| 2026-05-06 15:36 | 37.01501 | 30.80842 | 2169 ft | 190 kts | 185° |
| 2026-05-06 15:37 | 37.00255 | 30.80670 | 1934 ft | 173 kts | 185° |
| 2026-05-06 15:37 | 36.99109 | 30.80513 | 1706 ft | 158 kts | 187° |
| 2026-05-06 15:37 | 36.98076 | 30.80371 | 1522 ft | 143 kts | 185° |
| 2026-05-06 15:37 | 36.97102 | 30.80237 | 1324 ft | 139 kts | 185° |
| 2026-05-06 15:38 | 36.96156 | 30.80108 | 1140 ft | 136 kts | 186° |
| 2026-05-06 15:38 | 36.95227 | 30.79980 | 960 ft | 134 kts | 185° |
| 2026-05-06 15:38 | 36.94298 | 30.79853 | 774 ft | 134 kts | 183° |
| 2026-05-06 15:38 | 36.93373 | 30.79725 | 597 ft | 133 kts | 183° |
| 2026-05-06 15:39 | 36.92465 | 30.79602 | 420 ft | 130 kts | 184° |
| 2026-05-06 15:39 | 36.91569 | 30.79479 | 246 ft | 130 kts | 186° |
| 2026-05-06 15:39 | 36.90719 | 30.79354 | 181 ft | 110 kts | 185° |
| 2026-05-06 15:39 | 36.90109 | 30.79276 | 177 ft | 63 kts | 186° |
| 2026-05-06 15:40 | 36.89799 | 30.79235 | 178 ft | 33 kts | 187° |
| 2026-05-06 15:40 | 36.89641 | 30.79221 | 177 ft | 20 kts | 163° |
| 2026-05-06 15:40 | 36.89502 | 30.79279 | 178 ft | 22 kts | 156° |
| 2026-05-06 15:40 | 36.89419 | 30.79325 | 178 ft | 0 kts | 155° |
| 2026-05-06 15:42 | 36.89417 | 30.79326 | 178 ft | 2 kts | 155° |
| 2026-05-06 15:42 | 36.89397 | 30.79338 | 178 ft | 5 kts | 155° |
| 2026-05-06 15:43 | 36.89356 | 30.79360 | 178 ft | 5 kts | 155° |
| 2026-05-06 15:43 | 36.89348 | 30.79384 | 178 ft | 3 kts | 44° |
| 2026-05-06 15:43 | 36.89379 | 30.79397 | 178 ft | 6 kts | 11° |
| 2026-05-06 15:43 | 36.89431 | 30.79404 | 178 ft | 9 kts | 5° |
| 2026-05-06 15:44 | 36.89500 | 30.79414 | 178 ft | 11 kts | 7° |
| 2026-05-06 15:44 | 36.89584 | 30.79426 | 178 ft | 13 kts | 6° |
| 2026-05-06 15:44 | 36.89687 | 30.79439 | 178 ft | 16 kts | 6° |
| 2026-05-06 15:44 | 36.89739 | 30.79467 | 178 ft | 3 kts | 121° |
| 2026-05-06 15:45 | 36.89699 | 30.79515 | 178 ft | 8 kts | 137° |
| 2026-05-06 15:45 | 36.89637 | 30.79527 | 178 ft | 11 kts | 186° |